createdAt,value
2023-05-08T00:00:41.625Z,0.63
2023-05-08T00:01:41.645Z,0.75
2023-05-08T00:02:41.738Z,1.02
2023-05-08T00:03:41.797Z,0.70
2023-05-08T00:04:41.757Z,0.70
2023-05-08T00:05:41.723Z,0.83
2023-05-08T00:06:41.714Z,0.57
2023-05-08T00:07:41.703Z,0.92
2023-05-08T00:08:41.723Z,0.72
2023-05-08T00:09:42.114Z,0.88
2023-05-08T00:10:41.755Z,0.71
2023-05-08T00:11:41.765Z,0.87
2023-05-08T00:12:41.895Z,0.79
2023-05-08T00:13:41.780Z,0.82
2023-05-08T00:14:41.932Z,0.75
2023-05-08T00:15:41.815Z,0.76
2023-05-08T00:16:41.975Z,0.66
2023-05-08T00:17:41.881Z,0.87
2023-05-08T00:18:41.876Z,0.87
2023-05-08T00:19:41.830Z,0.63
2023-05-08T00:20:41.917Z,0.62
2023-05-08T00:21:41.863Z,0.65
2023-05-08T00:22:41.849Z,0.84
2023-05-08T00:23:41.855Z,0.88
2023-05-08T00:24:41.897Z,0.87
2023-05-08T00:25:41.858Z,0.76
2023-05-08T00:26:42.013Z,0.58
2023-05-08T00:27:41.873Z,0.65
2023-05-08T00:28:41.901Z,0.74
2023-05-08T00:29:42.656Z,0.87
2023-05-08T00:30:41.905Z,1.06
2023-05-08T00:31:41.968Z,0.84
2023-05-08T00:32:41.955Z,0.66
2023-05-08T00:33:41.944Z,0.73
2023-05-08T00:34:41.956Z,0.63
2023-05-08T00:35:41.934Z,0.74
2023-05-08T00:36:41.961Z,0.91
2023-05-08T00:37:41.959Z,0.78
2023-05-08T00:38:41.964Z,0.81
2023-05-08T00:39:42.082Z,0.88
2023-05-08T00:40:42.052Z,0.89
2023-05-08T00:41:42.006Z,1.20
2023-05-08T00:42:41.975Z,0.81
2023-05-08T00:43:42.036Z,0.52
2023-05-08T00:44:41.996Z,0.76
2023-05-08T00:45:42.044Z,0.67
2023-05-08T00:46:42.215Z,0.73
2023-05-08T00:47:42.096Z,0.75
2023-05-08T00:48:42.069Z,0.83
2023-05-08T00:49:42.071Z,0.88
2023-05-08T00:50:42.071Z,0.79
2023-05-08T00:51:42.168Z,0.83
2023-05-08T00:52:42.127Z,0.66
2023-05-08T00:53:42.100Z,0.77
2023-05-08T00:54:42.124Z,0.64
2023-05-08T00:55:42.166Z,0.82
2023-05-08T00:56:42.207Z,0.73
2023-05-08T00:57:42.165Z,0.61
2023-05-08T00:58:42.191Z,0.65
2023-05-08T00:59:42.189Z,0.77
2023-05-08T01:00:42.168Z,0.73
2023-05-08T01:01:42.227Z,0.88
2023-05-08T01:02:42.355Z,0.83
2023-05-08T01:03:42.482Z,0.92
2023-05-08T01:04:43.605Z,0.76
2023-05-08T01:05:42.221Z,0.69
2023-05-08T01:06:42.250Z,0.63
2023-05-08T01:07:42.240Z,0.90
2023-05-08T01:08:42.248Z,0.57
2023-05-08T01:09:42.319Z,0.67
2023-05-08T01:10:42.286Z,0.88
2023-05-08T01:11:42.316Z,0.60
2023-05-08T01:12:42.347Z,0.93
2023-05-08T01:13:42.302Z,0.86
2023-05-08T01:14:42.331Z,0.99
2023-05-08T01:15:42.368Z,0.59
2023-05-08T01:16:42.365Z,1.02
2023-05-08T01:17:42.402Z,0.68
2023-05-08T01:18:42.355Z,0.67
2023-05-08T01:19:42.360Z,0.83
2023-05-08T01:20:42.397Z,0.78
2023-05-08T01:21:42.401Z,0.69
2023-05-08T01:22:42.384Z,0.69
2023-05-08T01:23:42.375Z,0.77
2023-05-08T01:24:42.402Z,0.67
2023-05-08T01:25:42.420Z,0.76
2023-05-08T01:26:42.449Z,0.61
2023-05-08T01:27:42.405Z,0.87
2023-05-08T01:28:42.422Z,0.71
2023-05-08T01:29:42.481Z,0.52
2023-05-08T01:30:42.531Z,0.91
2023-05-08T01:31:42.451Z,0.71
2023-05-08T01:32:42.534Z,0.59
2023-05-08T01:33:42.519Z,0.85
2023-05-08T01:34:42.491Z,0.83
2023-05-08T01:35:42.516Z,0.84
2023-05-08T01:36:42.533Z,0.74
2023-05-08T01:37:42.536Z,0.69
2023-05-08T01:38:42.518Z,0.64
2023-05-08T01:39:42.562Z,0.60
2023-05-08T01:40:42.695Z,0.77
2023-05-08T01:41:42.567Z,0.67
2023-05-08T01:42:42.574Z,0.90
2023-05-08T01:43:42.591Z,0.59
2023-05-08T01:44:42.616Z,0.79
2023-05-08T01:45:42.602Z,0.57
2023-05-08T01:46:42.719Z,0.79
2023-05-08T01:47:42.663Z,0.71
2023-05-08T01:48:42.648Z,0.92
2023-05-08T01:49:42.670Z,0.82
2023-05-08T01:50:42.677Z,0.78
2023-05-08T01:51:42.692Z,0.53
2023-05-08T01:52:42.733Z,0.85
2023-05-08T01:53:42.848Z,0.77
2023-05-08T01:54:43.102Z,0.68
2023-05-08T01:55:42.725Z,0.72
2023-05-08T01:56:42.736Z,0.79
2023-05-08T01:57:42.759Z,0.46
2023-05-08T01:58:42.772Z,0.56
2023-05-08T01:59:42.784Z,0.59
2023-05-08T02:00:42.845Z,0.81
2023-05-08T02:01:42.843Z,0.83
2023-05-08T02:02:42.901Z,0.63
2023-05-08T02:03:42.853Z,0.75
2023-05-08T02:04:42.859Z,0.66
2023-05-08T02:05:42.865Z,0.66
2023-05-08T02:06:42.875Z,0.67
2023-05-08T02:07:42.883Z,0.86
2023-05-08T02:08:42.930Z,0.81
2023-05-08T02:09:42.938Z,0.75
2023-05-08T02:10:42.913Z,0.47
2023-05-08T02:11:42.938Z,0.80
2023-05-08T02:12:43.038Z,0.78
2023-05-08T02:13:42.976Z,0.84
2023-05-08T02:14:42.991Z,0.76
2023-05-08T02:15:42.997Z,0.53
2023-05-08T02:16:43.051Z,0.65
2023-05-08T02:17:43.052Z,0.66
2023-05-08T02:18:43.019Z,0.79
2023-05-08T02:19:43.032Z,0.58
2023-05-08T02:20:43.151Z,0.75
2023-05-08T02:21:43.056Z,0.93
2023-05-08T02:22:43.071Z,0.73
2023-05-08T02:23:43.040Z,0.76
2023-05-08T02:24:43.062Z,0.69
2023-05-08T02:25:43.073Z,0.92
2023-05-08T02:26:43.088Z,0.63
2023-05-08T02:27:43.089Z,0.79
2023-05-08T02:28:43.164Z,0.75
2023-05-08T02:29:43.162Z,0.91
2023-05-08T02:30:43.125Z,0.81
2023-05-08T02:31:43.190Z,0.73
2023-05-08T02:32:43.176Z,0.87
2023-05-08T02:33:43.274Z,0.81
2023-05-08T02:34:51.210Z,0.69
2023-05-08T02:35:44.174Z,0.56
2023-05-08T02:36:43.172Z,0.50
2023-05-08T02:37:43.143Z,0.80
2023-05-08T02:38:43.162Z,0.86
2023-05-08T02:39:43.200Z,0.78
2023-05-08T02:40:43.147Z,0.94
2023-05-08T02:41:43.132Z,0.59
2023-05-08T02:42:43.098Z,0.87
2023-05-08T02:43:43.111Z,0.49
2023-05-08T02:44:43.145Z,0.76
2023-05-08T02:45:43.132Z,0.73
2023-05-08T02:46:43.105Z,0.53
2023-05-08T02:47:43.174Z,0.71
2023-05-08T02:48:43.077Z,0.65
2023-05-08T02:49:43.063Z,0.50
2023-05-08T02:50:43.077Z,0.77
2023-05-08T02:51:43.089Z,0.73
2023-05-08T02:52:43.042Z,0.67
2023-05-08T02:53:43.081Z,0.96
2023-05-08T02:54:43.061Z,0.61
2023-05-08T02:55:43.060Z,0.68
2023-05-08T02:56:43.043Z,0.60
2023-05-08T02:57:43.012Z,0.42
2023-05-08T02:58:42.984Z,0.64
2023-05-08T02:59:42.987Z,0.82
2023-05-08T03:00:42.976Z,0.74
2023-05-08T03:01:42.991Z,0.68
2023-05-08T03:02:43.093Z,0.60
2023-05-08T03:03:43.089Z,0.73
2023-05-08T03:04:43.034Z,0.68
2023-05-08T03:05:43.008Z,0.58
2023-05-08T03:06:43.027Z,0.73
2023-05-08T03:07:43.018Z,0.93
2023-05-08T03:08:43.052Z,0.62
2023-05-08T03:09:43.120Z,0.70
2023-05-08T03:10:43.106Z,0.48
2023-05-08T03:11:43.083Z,0.84
2023-05-08T03:12:43.657Z,0.51
2023-05-08T03:13:43.097Z,0.45
2023-05-08T03:14:43.110Z,0.80
2023-05-08T03:15:43.172Z,0.47
2023-05-08T03:16:43.105Z,0.59
2023-05-08T03:17:43.160Z,0.75
2023-05-08T03:18:43.178Z,0.83
2023-05-08T03:19:43.205Z,0.62
2023-05-08T03:20:43.174Z,0.76
2023-05-08T03:21:43.696Z,0.45
2023-05-08T03:22:43.195Z,0.67
2023-05-08T03:23:43.182Z,0.60
2023-05-08T03:24:43.260Z,0.67
2023-05-08T03:25:43.195Z,0.65
2023-05-08T03:26:43.213Z,0.56
2023-05-08T03:27:43.245Z,0.49
2023-05-08T03:28:43.251Z,0.71
2023-05-08T03:29:43.267Z,0.57
2023-05-08T03:30:43.249Z,0.66
2023-05-08T03:31:43.380Z,0.89
2023-05-08T03:32:43.339Z,0.83
2023-05-08T03:33:43.337Z,0.80
2023-05-08T03:34:43.274Z,0.57
2023-05-08T03:35:43.306Z,0.86
2023-05-08T03:36:43.312Z,0.75
2023-05-08T03:37:43.318Z,0.53
2023-05-08T03:38:43.334Z,0.65
2023-05-08T03:39:43.418Z,0.60
2023-05-08T03:40:43.344Z,0.91
2023-05-08T03:41:43.428Z,0.62
2023-05-08T03:42:43.405Z,0.65
2023-05-08T03:43:43.394Z,0.95
2023-05-08T03:45:43.409Z,0.44
2023-05-08T03:46:43.491Z,0.93
2023-05-08T03:47:44.420Z,0.60
2023-05-08T03:48:43.445Z,0.51
2023-05-08T03:49:43.456Z,0.83
2023-05-08T03:50:43.489Z,0.54
2023-05-08T03:51:43.464Z,0.66
2023-05-08T03:52:43.487Z,0.64
2023-05-08T03:53:43.514Z,0.75
2023-05-08T03:54:43.518Z,0.55
2023-05-08T03:55:43.502Z,0.74
2023-05-08T03:56:43.517Z,0.75
2023-05-08T03:57:43.535Z,0.58
2023-05-08T03:58:43.545Z,0.39
2023-05-08T03:59:43.609Z,0.39
2023-05-08T04:00:43.571Z,0.51
2023-05-08T04:01:43.748Z,0.57
2023-05-08T04:02:43.625Z,0.74
2023-05-08T04:03:43.729Z,0.65
2023-05-08T04:04:43.606Z,0.54
2023-05-08T04:05:43.647Z,0.67
2023-05-08T04:06:49.833Z,0.66
2023-05-08T04:07:44.641Z,0.55
2023-05-08T04:08:43.638Z,0.62
2023-05-08T04:09:43.650Z,0.62
2023-05-08T04:10:43.636Z,0.65
2023-05-08T04:11:43.604Z,0.51
2023-05-08T04:12:43.640Z,0.73
2023-05-08T04:13:43.589Z,0.57
2023-05-08T04:14:43.588Z,0.81
2023-05-08T04:15:43.716Z,0.60
2023-05-08T04:16:43.635Z,0.88
2023-05-08T04:17:43.761Z,0.61
2023-05-08T04:18:43.592Z,0.55
2023-05-08T04:19:43.532Z,0.61
2023-05-08T04:20:44.518Z,0.87
2023-05-08T04:21:43.567Z,0.63
2023-05-08T04:22:43.544Z,0.75
2023-05-08T04:23:43.509Z,0.71
2023-05-08T04:24:43.694Z,0.54
2023-05-08T04:25:43.506Z,0.52
2023-05-08T04:26:43.471Z,0.61
2023-05-08T04:27:43.479Z,0.44
2023-05-08T04:28:43.453Z,1.17
2023-05-08T04:29:43.468Z,0.73
2023-05-08T04:30:43.432Z,0.70
2023-05-08T04:31:43.509Z,0.84
2023-05-08T04:32:45.548Z,0.70
2023-05-08T04:33:43.437Z,0.62
2023-05-08T04:34:43.459Z,0.72
2023-05-08T04:35:43.430Z,0.78
2023-05-08T04:36:43.441Z,0.67
2023-05-08T04:37:43.512Z,0.77
2023-05-08T04:38:43.400Z,0.96
2023-05-08T04:39:43.844Z,0.73
2023-05-08T04:40:43.366Z,0.64
2023-05-08T04:41:43.478Z,0.65
2023-05-08T04:42:43.376Z,0.89
2023-05-08T04:43:43.370Z,0.78
2023-05-08T04:44:44.162Z,0.64
2023-05-08T04:45:43.345Z,0.59
2023-05-08T04:46:43.382Z,0.75
2023-05-08T04:47:43.431Z,0.89
2023-05-08T04:48:43.314Z,0.75
2023-05-08T04:49:43.322Z,0.66
2023-05-08T04:50:43.325Z,0.45
2023-05-08T04:51:43.297Z,0.51
2023-05-08T04:52:43.285Z,0.54
2023-05-08T04:53:43.361Z,0.58
2023-05-08T04:54:43.307Z,0.60
2023-05-08T04:55:43.287Z,0.53
2023-05-08T04:56:43.262Z,0.68
2023-05-08T04:57:43.271Z,0.85
2023-05-08T04:58:43.273Z,0.57
2023-05-08T04:59:43.256Z,0.82
2023-05-08T05:00:43.262Z,0.80
2023-05-08T05:01:43.287Z,1.01
2023-05-08T05:02:43.348Z,0.68
2023-05-08T05:03:43.240Z,0.80
2023-05-08T05:04:43.240Z,0.64
2023-05-08T05:05:43.215Z,0.62
2023-05-08T05:06:43.197Z,0.79
2023-05-08T05:07:43.195Z,0.78
2023-05-08T05:08:43.168Z,0.66
2023-05-08T05:09:43.185Z,0.64
2023-05-08T05:10:43.149Z,0.49
2023-05-08T05:11:43.169Z,0.49
2023-05-08T05:12:43.237Z,0.84
2023-05-08T05:13:43.179Z,0.48
2023-05-08T05:14:43.174Z,0.77
2023-05-08T05:15:43.166Z,0.50
2023-05-08T05:16:43.249Z,0.64
2023-05-08T05:17:43.177Z,0.69
2023-05-08T05:18:43.092Z,0.65
2023-05-08T05:19:43.119Z,0.70
2023-05-08T05:20:43.139Z,0.52
2023-05-08T05:21:43.092Z,0.59
2023-05-08T05:22:43.112Z,0.55
2023-05-08T05:23:43.093Z,0.60
2023-05-08T05:24:43.112Z,0.68
2023-05-08T05:25:43.073Z,0.79
2023-05-08T05:26:43.031Z,0.46
2023-05-08T05:27:43.057Z,0.63
2023-05-08T05:28:43.025Z,0.71
2023-05-08T05:29:43.709Z,0.63
2023-05-08T05:30:43.043Z,0.59
2023-05-08T05:31:43.083Z,0.59
2023-05-08T05:32:43.038Z,0.75
2023-05-08T05:33:43.016Z,0.58
2023-05-08T05:34:43.052Z,0.94
2023-05-08T05:35:43.153Z,1.31
2023-05-08T05:36:43.696Z,1.32
2023-05-08T05:37:42.984Z,2.38
2023-05-08T05:38:42.964Z,1.75
2023-05-08T05:39:42.976Z,2.39
2023-05-08T05:40:42.935Z,1.75
2023-05-08T05:41:42.961Z,1.59
2023-05-08T05:42:43.250Z,2.34
2023-05-08T05:43:43.073Z,2.17
2023-05-08T05:44:43.280Z,1.83
2023-05-08T05:45:43.144Z,2.69
2023-05-08T05:46:44.546Z,2.37
2023-05-08T05:47:43.009Z,2.87
2023-05-08T05:48:42.895Z,2.67
2023-05-08T05:49:43.771Z,2.07
2023-05-08T05:50:42.886Z,2.60
2023-05-08T05:51:42.954Z,2.35
2023-05-08T05:52:42.917Z,2.34
2023-05-08T05:53:42.862Z,1.49
2023-05-08T05:54:43.006Z,1.81
2023-05-08T05:55:42.954Z,2.21
2023-05-08T05:56:43.090Z,2.55
2023-05-08T05:57:43.094Z,2.13
2023-05-08T05:58:43.111Z,2.51
2023-05-08T05:59:43.214Z,1.92
2023-05-08T06:00:43.316Z,1.91
2023-05-08T06:01:43.540Z,1.68
2023-05-08T06:02:43.496Z,2.07
2023-05-08T06:03:43.638Z,1.59
2023-05-08T06:04:43.556Z,2.09
2023-05-08T06:05:43.555Z,2.07
2023-05-08T06:06:43.611Z,2.72
2023-05-08T06:07:43.667Z,1.98
2023-05-08T06:08:43.706Z,1.93
2023-05-08T06:09:43.754Z,1.71
2023-05-08T06:10:43.800Z,1.58
2023-05-08T06:11:43.839Z,1.72
2023-05-08T06:12:43.961Z,1.54
2023-05-08T06:13:43.968Z,1.83
2023-05-08T06:14:44.110Z,1.62
2023-05-08T06:15:44.097Z,1.55
2023-05-08T06:16:44.269Z,1.52
2023-05-08T06:17:44.275Z,1.33
2023-05-08T06:18:44.300Z,2.09
2023-05-08T06:19:44.365Z,1.24
2023-05-08T06:20:44.494Z,1.72
2023-05-08T06:21:44.469Z,1.86
2023-05-08T06:22:44.555Z,1.75
2023-05-08T06:23:44.612Z,2.18
2023-05-08T06:24:44.669Z,1.58
2023-05-08T06:25:44.797Z,1.49
2023-05-08T06:26:44.786Z,1.70
2023-05-08T06:27:44.857Z,1.50
2023-05-08T06:28:44.979Z,1.66
2023-05-08T06:29:44.984Z,1.27
2023-05-08T06:30:45.095Z,1.42
2023-05-08T06:31:45.124Z,1.56
2023-05-08T06:32:45.220Z,1.30
2023-05-08T06:33:45.234Z,1.55
2023-05-08T06:34:45.328Z,1.38
2023-05-08T06:35:45.390Z,1.32
2023-05-08T06:36:45.411Z,1.41
2023-05-08T06:37:45.480Z,1.55
2023-05-08T06:38:45.565Z,1.67
2023-05-08T06:39:45.641Z,1.95
2023-05-08T06:40:45.690Z,1.17
2023-05-08T06:41:45.754Z,1.70
2023-05-08T06:42:45.795Z,1.24
2023-05-08T06:43:45.850Z,1.43
2023-05-08T06:44:46.073Z,1.68
2023-05-08T06:45:45.988Z,2.49
2023-05-08T06:46:46.856Z,1.45
2023-05-08T06:47:46.158Z,1.69
2023-05-08T06:48:46.148Z,1.77
2023-05-08T06:49:46.292Z,1.43
2023-05-08T06:50:46.236Z,1.56
2023-05-08T06:51:46.308Z,1.49
2023-05-08T06:52:46.370Z,1.14
2023-05-08T06:53:46.289Z,1.40
2023-05-08T06:54:46.333Z,1.69
2023-05-08T06:55:46.331Z,1.60
2023-05-08T06:56:46.345Z,1.42
2023-05-08T06:57:46.417Z,1.32
2023-05-08T06:58:53.777Z,1.49
2023-05-08T06:59:52.750Z,1.17
2023-05-08T07:00:46.520Z,1.39
2023-05-08T07:01:46.485Z,1.28
2023-05-08T07:02:46.465Z,1.33
2023-05-08T07:03:46.428Z,1.53
2023-05-08T07:04:46.437Z,1.11
2023-05-08T07:05:46.458Z,1.40
2023-05-08T07:06:46.377Z,1.27
2023-05-08T07:07:47.281Z,1.62
2023-05-08T07:08:46.368Z,1.47
2023-05-08T07:09:46.378Z,1.64
2023-05-08T07:10:46.412Z,1.72
2023-05-08T07:11:46.376Z,1.35
2023-05-08T07:12:46.424Z,1.04
2023-05-08T07:13:46.357Z,1.01
2023-05-08T07:14:46.423Z,1.39
2023-05-08T07:15:46.494Z,1.24
2023-05-08T07:16:46.412Z,1.40
2023-05-08T07:17:46.419Z,1.06
2023-05-08T07:18:46.292Z,1.31
2023-05-08T07:19:46.295Z,1.56
2023-05-08T07:20:46.337Z,1.15
2023-05-08T07:21:46.322Z,1.45
2023-05-08T07:22:46.320Z,1.34
2023-05-08T07:23:46.346Z,1.22
2023-05-08T07:24:46.270Z,1.43
2023-05-08T07:25:46.272Z,1.05
2023-05-08T07:26:46.345Z,1.14
2023-05-08T07:27:46.271Z,2.05
2023-05-08T07:28:46.232Z,1.38
2023-05-08T07:29:46.255Z,1.57
2023-05-08T07:30:46.220Z,1.68
2023-05-08T07:31:46.326Z,1.18
2023-05-08T07:32:46.308Z,1.70
2023-05-08T07:33:46.230Z,2.26
2023-05-08T07:34:46.228Z,2.44
2023-05-08T07:35:46.362Z,2.44
2023-05-08T07:36:46.283Z,1.79
2023-05-08T07:37:46.319Z,2.10
2023-05-08T07:38:46.172Z,2.11
2023-05-08T07:39:46.173Z,1.90
2023-05-08T07:40:46.249Z,1.95
2023-05-08T07:41:48.428Z,1.85
2023-05-08T07:42:46.820Z,2.14
2023-05-08T07:43:47.813Z,1.71
2023-05-08T07:44:54.373Z,1.62
2023-05-08T07:45:47.125Z,1.71
2023-05-08T07:46:46.288Z,2.18
2023-05-08T07:47:46.373Z,1.88
2023-05-08T07:48:46.116Z,1.80
2023-05-08T07:49:46.235Z,1.93
2023-05-08T07:50:46.330Z,2.19
2023-05-08T07:51:46.213Z,2.01
2023-05-08T07:52:47.913Z,2.11
2023-05-08T07:53:46.338Z,2.28
2023-05-08T07:54:46.197Z,2.21
2023-05-08T07:55:46.224Z,2.50
2023-05-08T07:56:46.233Z,2.56
2023-05-08T07:57:46.243Z,2.42
2023-05-08T07:58:46.137Z,2.17
2023-05-08T07:59:46.116Z,2.26
2023-05-08T08:00:46.213Z,2.52
2023-05-08T08:01:46.065Z,2.14
2023-05-08T08:02:46.325Z,2.02
2023-05-08T08:03:46.979Z,2.36
2023-05-08T08:04:46.231Z,2.33
2023-05-08T08:05:46.102Z,2.36
2023-05-08T08:06:46.181Z,2.85
2023-05-08T08:07:46.089Z,4.69
2023-05-08T08:08:46.025Z,2.48
2023-05-08T08:09:46.213Z,2.93
2023-05-08T08:10:53.839Z,2.31
2023-05-08T08:11:46.016Z,3.05
2023-05-08T08:12:46.069Z,3.46
2023-05-08T08:13:46.062Z,2.21
2023-05-08T08:14:45.966Z,2.76
2023-05-08T08:15:45.963Z,3.30
2023-05-08T08:16:46.071Z,3.27
2023-05-08T08:17:45.985Z,2.83
2023-05-08T08:18:46.071Z,3.15
2023-05-08T08:19:45.968Z,2.60
2023-05-08T08:20:46.091Z,2.62
2023-05-08T08:21:45.968Z,3.25
2023-05-08T08:22:46.364Z,3.62
2023-05-08T08:23:46.015Z,3.77
2023-05-08T08:24:46.085Z,2.27
2023-05-08T08:25:46.144Z,3.00
2023-05-08T08:26:46.110Z,2.50
2023-05-08T08:27:46.184Z,2.49
2023-05-08T08:28:46.194Z,2.61
2023-05-08T08:29:46.253Z,2.19
2023-05-08T08:30:46.347Z,2.43
2023-05-08T08:31:46.397Z,3.37
2023-05-08T08:32:46.622Z,2.76
2023-05-08T08:33:46.479Z,2.18
2023-05-08T08:34:46.566Z,2.44
2023-05-08T08:35:46.622Z,2.60
2023-05-08T08:36:46.693Z,2.12
2023-05-08T08:37:46.783Z,1.83
2023-05-08T08:38:46.772Z,2.73
2023-05-08T08:39:47.780Z,2.16
2023-05-08T08:40:54.902Z,8.77
2023-05-08T08:41:46.868Z,4.44
2023-05-08T08:42:47.326Z,4.60
2023-05-08T08:43:46.895Z,4.50
2023-05-08T08:44:46.846Z,4.09
2023-05-08T08:45:46.876Z,3.78
2023-05-08T08:46:46.885Z,2.95
2023-05-08T08:47:46.872Z,3.87
2023-05-08T08:48:46.820Z,4.57
2023-05-08T08:49:46.838Z,3.12
2023-05-08T08:50:46.826Z,3.29
2023-05-08T08:51:46.895Z,3.07
2023-05-08T08:52:47.343Z,2.81
2023-05-08T08:53:47.819Z,2.85
2023-05-08T08:54:47.061Z,2.21
2023-05-08T08:55:47.075Z,2.80
2023-05-08T08:56:47.219Z,2.65
2023-05-08T08:57:47.213Z,3.53
2023-05-08T08:58:47.249Z,2.59
2023-05-08T08:59:47.308Z,2.93
2023-05-08T09:00:47.364Z,2.82
2023-05-08T09:01:47.421Z,2.18
2023-05-08T09:02:47.476Z,2.29
2023-05-08T09:03:49.936Z,2.70
2023-05-08T09:04:47.482Z,3.00
2023-05-08T09:05:47.467Z,2.33
2023-05-08T09:06:47.474Z,2.16
2023-05-08T09:07:47.463Z,2.38
2023-05-08T09:08:47.480Z,2.40
2023-05-08T09:09:47.476Z,2.23
2023-05-08T09:10:47.521Z,1.59
2023-05-08T09:11:47.538Z,2.63
2023-05-08T09:12:47.567Z,2.00
2023-05-08T09:13:47.508Z,1.91
2023-05-08T09:14:47.613Z,2.56
2023-05-08T09:15:47.445Z,1.51
2023-05-08T09:16:47.527Z,1.61
2023-05-08T09:17:47.415Z,2.32
2023-05-08T09:18:47.382Z,1.68
2023-05-08T09:19:47.359Z,2.19
2023-05-08T09:20:47.395Z,2.49
2023-05-08T09:21:47.354Z,1.46
2023-05-08T09:22:47.362Z,1.70
2023-05-08T09:23:47.423Z,1.53
2023-05-08T09:24:47.333Z,2.45
2023-05-08T09:25:47.326Z,2.20
2023-05-08T09:26:47.326Z,2.12
2023-05-08T09:27:47.305Z,2.59
2023-05-08T09:28:47.432Z,2.93
2023-05-08T09:29:47.279Z,2.06
2023-05-08T09:30:47.291Z,2.09
2023-05-08T09:31:47.324Z,2.42
2023-05-08T09:32:47.344Z,3.31
2023-05-08T09:33:47.270Z,3.45
2023-05-08T09:34:47.286Z,4.49
2023-05-08T09:35:47.845Z,3.07
2023-05-08T09:36:47.251Z,3.46
2023-05-08T09:37:47.279Z,3.35
2023-05-08T09:38:47.258Z,2.91
2023-05-08T09:39:47.228Z,2.38
2023-05-08T09:40:47.350Z,2.69
2023-05-08T09:41:47.239Z,1.79
2023-05-08T09:42:47.256Z,2.55
2023-05-08T09:43:47.360Z,2.55
2023-05-08T09:44:47.298Z,1.97
2023-05-08T09:45:47.873Z,2.34
2023-05-08T09:46:47.195Z,1.66
2023-05-08T09:47:47.228Z,1.81
2023-05-08T09:48:47.231Z,1.56
2023-05-08T09:49:47.163Z,1.68
2023-05-08T09:50:47.168Z,2.07
2023-05-08T09:51:47.216Z,1.42
2023-05-08T09:52:47.154Z,1.28
2023-05-08T09:53:47.345Z,1.44
2023-05-08T09:54:47.245Z,1.55
2023-05-08T09:55:47.254Z,1.46
2023-05-08T09:56:47.277Z,1.31
2023-05-08T09:57:47.843Z,2.15
2023-05-08T09:58:47.356Z,1.33
2023-05-08T09:59:47.385Z,1.14
2023-05-08T10:00:47.537Z,1.42
2023-05-08T10:01:47.460Z,1.56
2023-05-08T10:02:47.512Z,1.75
2023-05-08T10:03:47.571Z,1.95
2023-05-08T10:04:47.621Z,2.49
2023-05-08T10:05:47.634Z,2.16
2023-05-08T10:06:47.651Z,1.91
2023-05-08T10:07:47.645Z,1.85
2023-05-08T10:08:47.697Z,2.00
2023-05-08T10:09:50.966Z,1.60
2023-05-08T10:10:47.916Z,1.51
2023-05-08T10:11:47.731Z,2.65
2023-05-08T10:12:47.757Z,2.18
2023-05-08T10:13:47.724Z,1.77
2023-05-08T10:14:47.685Z,1.93
2023-05-08T10:15:47.697Z,2.03
2023-05-08T10:16:47.806Z,1.54
2023-05-08T10:17:47.746Z,2.23
2023-05-08T10:18:47.658Z,1.98
2023-05-08T10:19:47.800Z,2.85
2023-05-08T10:20:47.713Z,2.14
2023-05-08T10:21:47.672Z,1.51
2023-05-08T10:22:47.661Z,1.69
2023-05-08T10:23:47.634Z,1.53
2023-05-08T10:24:47.631Z,1.90
2023-05-08T10:25:47.632Z,1.52
2023-05-08T10:27:02.640Z,1.44
2023-05-08T10:27:48.652Z,1.75
2023-05-08T10:28:47.602Z,1.87
2023-05-08T10:29:47.783Z,2.15
2023-05-08T10:30:47.633Z,1.86
2023-05-08T10:31:47.616Z,2.06
2023-05-08T10:32:47.697Z,2.46
2023-05-08T10:33:47.598Z,1.41
2023-05-08T10:34:47.571Z,1.71
2023-05-08T10:35:47.581Z,1.84
2023-05-08T10:36:47.557Z,2.29
2023-05-08T10:37:47.578Z,2.16
2023-05-08T10:38:47.517Z,2.02
2023-05-08T10:39:47.590Z,2.91
2023-05-08T10:40:47.587Z,1.65
2023-05-08T10:41:47.543Z,1.63
2023-05-08T10:42:47.555Z,1.70
2023-05-08T10:43:47.529Z,2.05
2023-05-08T10:44:47.489Z,1.56
2023-05-08T10:45:47.585Z,1.41
2023-05-08T10:46:47.615Z,2.93
2023-05-08T10:47:47.592Z,1.50
2023-05-08T10:48:47.610Z,1.42
2023-05-08T10:49:47.597Z,1.57
2023-05-08T10:50:47.672Z,1.56
2023-05-08T10:51:47.651Z,1.94
2023-05-08T10:52:47.754Z,1.47
2023-05-08T10:53:47.873Z,1.48
2023-05-08T10:54:47.744Z,1.67
2023-05-08T10:55:47.755Z,1.33
2023-05-08T10:56:47.785Z,1.42
2023-05-08T10:57:47.822Z,1.26
2023-05-08T10:58:47.824Z,1.43
2023-05-08T10:59:47.886Z,1.72
2023-05-08T11:00:47.846Z,1.60
2023-05-08T11:01:47.907Z,1.16
2023-05-08T11:02:48.020Z,1.17
2023-05-08T11:03:48.092Z,1.67
2023-05-08T11:04:48.040Z,1.24
2023-05-08T11:05:48.013Z,1.46
2023-05-08T11:06:48.014Z,0.93
2023-05-08T11:07:48.178Z,1.48
2023-05-08T11:08:48.378Z,1.66
2023-05-08T11:09:48.081Z,1.73
2023-05-08T11:10:48.890Z,1.73
2023-05-08T11:11:48.141Z,1.21
2023-05-08T11:12:48.195Z,1.75
2023-05-08T11:13:48.178Z,1.76
2023-05-08T11:14:48.286Z,1.67
2023-05-08T11:15:48.219Z,2.60
2023-05-08T11:16:48.241Z,2.91
2023-05-08T11:17:48.239Z,2.87
2023-05-08T11:18:49.710Z,2.58
2023-05-08T11:19:48.260Z,2.54
2023-05-08T11:20:48.219Z,2.69
2023-05-08T11:21:48.292Z,2.33
2023-05-08T11:22:48.236Z,2.56
2023-05-08T11:23:48.423Z,3.08
2023-05-08T11:24:48.300Z,2.26
2023-05-08T11:25:48.913Z,2.91
2023-05-08T11:26:48.448Z,2.76
2023-05-08T11:27:48.355Z,2.73
2023-05-08T11:28:48.285Z,2.53
2023-05-08T11:29:48.342Z,2.95
2023-05-08T11:30:48.337Z,2.67
2023-05-08T11:31:48.417Z,2.00
2023-05-08T11:32:48.406Z,2.75
2023-05-08T11:33:48.377Z,2.92
2023-05-08T11:34:48.410Z,2.51
2023-05-08T11:35:48.416Z,3.05
2023-05-08T11:36:48.445Z,2.78
2023-05-08T11:37:48.492Z,1.94
2023-05-08T11:38:48.481Z,2.83
2023-05-08T11:39:48.569Z,2.40
2023-05-08T11:40:48.521Z,3.05
2023-05-08T11:41:48.940Z,2.86
2023-05-08T11:42:48.645Z,1.91
2023-05-08T11:43:48.612Z,2.15
2023-05-08T11:44:48.604Z,1.91
2023-05-08T11:45:48.616Z,2.73
2023-05-08T11:46:48.701Z,2.23
2023-05-08T11:47:48.750Z,2.30
2023-05-08T11:48:48.704Z,2.70
2023-05-08T11:49:48.721Z,2.31
2023-05-08T11:50:48.729Z,3.12
2023-05-08T11:51:48.756Z,2.55
2023-05-08T11:52:48.802Z,2.56
2023-05-08T11:53:48.809Z,5.70
2023-05-08T11:54:48.820Z,2.04
2023-05-08T11:55:48.861Z,2.29
2023-05-08T11:56:48.933Z,1.98
2023-05-08T11:57:48.892Z,2.40
2023-05-08T11:58:48.956Z,4.34
2023-05-08T11:59:48.975Z,2.72
2023-05-08T12:00:49.107Z,1.75
2023-05-08T12:02:07.036Z,3.00
2023-05-08T12:02:50.281Z,1.73
2023-05-08T12:03:49.273Z,2.11
2023-05-08T12:04:49.018Z,1.66
2023-05-08T12:05:48.986Z,1.84
2023-05-08T12:06:48.973Z,2.12
2023-05-08T12:07:48.982Z,2.12
2023-05-08T12:08:48.961Z,1.85
2023-05-08T12:09:48.988Z,3.78
2023-05-08T12:10:48.945Z,2.13
2023-05-08T12:11:49.429Z,3.08
2023-05-08T12:12:48.980Z,2.24
2023-05-08T12:13:48.929Z,2.19
2023-05-08T12:14:48.935Z,1.53
2023-05-08T12:15:48.927Z,2.18
2023-05-08T12:16:48.932Z,1.72
2023-05-08T12:17:48.966Z,2.24
2023-05-08T12:18:48.910Z,3.84
2023-05-08T12:19:48.976Z,1.97
2023-05-08T12:20:48.969Z,2.21
2023-05-08T12:21:49.472Z,1.84
2023-05-08T12:22:49.048Z,1.69
2023-05-08T12:23:49.092Z,2.37
2023-05-08T12:24:49.169Z,2.04
2023-05-08T12:25:49.193Z,2.07
2023-05-08T12:26:49.276Z,1.97
2023-05-08T12:27:49.254Z,1.83
2023-05-08T12:28:49.327Z,1.65
2023-05-08T12:29:49.369Z,2.16
2023-05-08T12:30:49.440Z,1.57
2023-05-08T12:31:49.449Z,1.67
2023-05-08T12:32:49.467Z,1.53
2023-05-08T12:33:49.533Z,1.88
2023-05-08T12:34:49.554Z,1.51
2023-05-08T12:35:49.579Z,1.14
2023-05-08T12:36:49.615Z,1.72
2023-05-08T12:37:49.646Z,1.58
2023-05-08T12:38:49.712Z,1.70
2023-05-08T12:39:49.742Z,1.79
2023-05-08T12:40:49.837Z,2.41
2023-05-08T12:41:49.834Z,1.45
2023-05-08T12:42:49.848Z,1.44
2023-05-08T12:43:49.965Z,1.82
2023-05-08T12:44:49.930Z,1.61
2023-05-08T12:45:50.931Z,1.81
2023-05-08T12:46:50.143Z,1.57
2023-05-08T12:47:50.103Z,1.53
2023-05-08T12:48:50.091Z,1.20
2023-05-08T12:49:50.119Z,1.51
2023-05-08T12:50:50.156Z,1.68
2023-05-08T12:51:50.200Z,1.55
2023-05-08T12:52:51.837Z,1.35
2023-05-08T12:53:50.272Z,1.65
2023-05-08T12:54:50.285Z,1.37
2023-05-08T12:55:50.359Z,1.64
2023-05-08T12:56:50.517Z,1.55
2023-05-08T12:57:50.432Z,1.62
2023-05-08T12:58:50.478Z,1.47
2023-05-08T12:59:50.581Z,1.31
2023-05-08T13:00:50.539Z,1.17
2023-05-08T13:01:50.625Z,1.45
2023-05-08T13:02:50.764Z,1.21
2023-05-08T13:03:56.078Z,1.52
2023-05-08T13:04:51.664Z,1.68
2023-05-08T13:05:50.618Z,1.36
2023-05-08T13:06:50.623Z,1.39
2023-05-08T13:07:50.772Z,1.27
2023-05-08T13:08:50.574Z,1.66
2023-05-08T13:09:50.582Z,1.55
2023-05-08T13:10:50.627Z,1.42
2023-05-08T13:11:50.564Z,1.38
2023-05-08T13:12:50.654Z,1.31
2023-05-08T13:13:50.560Z,1.32
2023-05-08T13:14:50.875Z,1.13
2023-05-08T13:15:50.592Z,1.31
2023-05-08T13:16:50.728Z,1.04
2023-05-08T13:17:50.583Z,1.18
2023-05-08T13:18:50.549Z,1.35
2023-05-08T13:19:50.530Z,1.02